Time;durP1;ratioP1;P1;durP2;ratioP2;P2;SDS_P1;SDS_P2;PMS_P1;PMS_P2;Temp;Humidity;BMP_temperature;BMP_pressure;BME280_temperature;BME280_humidity;BME280_pressure;Samples;Min_cycle;Max_cycle;Signal;HPM_P1;HPM_P2
2022/01/18 00:00:10;;;;;;;;;;;23.00;28.00;;;;;;5127935;27;19923;-51
2022/01/18 00:02:38;;;;;;;;;;;23.00;28.00;;;;;;5121656;27;19924;-53
2022/01/18 00:05:04;;;;;;;;;;;23.00;28.10;;;;;;5124759;27;19923;-56
2022/01/18 00:07:30;;;;;;;;;;;23.00;28.10;;;;;;5123327;27;19930;-52
2022/01/18 00:09:56;;;;;;;;;;;23.00;28.20;;;;;;5121521;27;19923;-51
2022/01/18 00:17:53;;;;;;;;;;;23.00;28.30;;;;;;5122242;27;19988;-49
2022/01/18 00:20:27;;;;;;;;;;;23.10;28.30;;;;;;5127453;27;19923;-48
2022/01/18 00:22:53;;;;;;;;;;;23.10;28.20;;;;;;5121420;27;20006;-48
2022/01/18 00:25:19;;;;;;;;;;;23.10;28.20;;;;;;5122020;27;19924;-47
2022/01/18 00:27:45;;;;;;;;;;;23.10;28.30;;;;;;5125242;27;19931;-46
2022/01/18 00:30:51;;;;;;;;;;;23.10;28.20;;;;;;5121500;27;19927;-47
2022/01/18 00:33:24;;;;;;;;;;;23.20;28.10;;;;;;5121605;27;20030;-57
2022/01/18 00:36:00;;;;;;;;;;;22.80;28.60;;;;;;5127529;27;20231;-56
2022/01/18 00:38:44;;;;;;;;;;;22.70;28.90;;;;;;5123875;27;20026;-57
2022/01/18 00:41:10;;;;;;;;;;;22.70;28.90;;;;;;5119781;27;19927;-52
2022/01/18 00:43:36;;;;;;;;;;;22.60;28.90;;;;;;5127013;27;19934;-55
2022/01/18 00:46:02;;;;;;;;;;;22.60;28.90;;;;;;5119380;27;20006;-55
2022/01/18 00:48:32;;;;;;;;;;;22.70;28.90;;;;;;5121466;27;19931;-54
2022/01/18 00:50:58;;;;;;;;;;;22.60;28.90;;;;;;5126845;27;19928;-55
2022/01/18 00:53:25;;;;;;;;;;;22.60;29.00;;;;;;5121633;27;19929;-52
2022/01/18 00:56:06;;;;;;;;;;;22.60;29.00;;;;;;5121401;27;19977;-53
2022/01/18 00:58:31;;;;;;;;;;;22.60;29.00;;;;;;5108038;27;19947;-55
2022/01/18 01:00:57;;;;;;;;;;;22.70;28.80;;;;;;5121664;27;20060;-50
2022/01/18 01:03:23;;;;;;;;;;;22.60;28.90;;;;;;5119600;27;20348;-55
2022/01/18 01:05:49;;;;;;;;;;;22.70;28.90;;;;;;5126474;27;19931;-52
2022/01/18 01:08:14;;;;;;;;;;;22.70;28.90;;;;;;5120961;27;19963;-54
2022/01/18 01:10:40;;;;;;;;;;;22.70;28.70;;;;;;5126844;27;19928;-51
2022/01/18 01:13:06;;;;;;;;;;;22.80;28.70;;;;;;5121562;27;20375;-54
2022/01/18 01:15:38;;;;;;;;;;;22.90;28.50;;;;;;5121306;28;20538;-51
2022/01/18 01:18:17;;;;;;;;;;;22.70;28.70;;;;;;5125732;28;19992;-52
2022/01/18 01:34:41;;;;;;;;;;;22.80;28.60;;;;;;5120951;28;20013;-51
2022/01/18 01:45:05;;;;;;;;;;;22.80;28.60;;;;;;5125787;27;19923;-50
2022/01/18 01:47:35;;;;;;;;;;;22.80;28.70;;;;;;5121059;28;20332;-50
2022/01/18 01:50:05;;;;;;;;;;;22.80;28.60;;;;;;5120958;28;19931;-50
2022/01/18 01:52:30;;;;;;;;;;;22.80;28.70;;;;;;5126097;27;19945;-50
2022/01/18 01:54:56;;;;;;;;;;;22.70;28.70;;;;;;5123826;27;19963;-52
2022/01/18 01:57:22;;;;;;;;;;;22.80;28.60;;;;;;5126922;27;20014;-55
2022/01/18 01:59:48;;;;;;;;;;;22.80;28.50;;;;;;5126408;27;19927;-53
2022/01/18 02:02:14;;;;;;;;;;;22.90;28.50;;;;;;5124701;27;20403;-51
2022/01/18 02:04:42;;;;;;;;;;;22.90;28.60;;;;;;5129752;27;19924;-53
2022/01/18 02:07:08;;;;;;;;;;;22.90;28.60;;;;;;5124871;27;20404;-51
2022/01/18 02:09:34;;;;;;;;;;;22.80;28.70;;;;;;5124730;27;19923;-52
2022/01/18 02:12:01;;;;;;;;;;;22.80;28.70;;;;;;5129489;27;19923;-52
2022/01/18 02:14:28;;;;;;;;;;;22.90;28.60;;;;;;5124276;27;20022;-52
2022/01/18 02:22:23;;;;;;;;;;;22.80;28.60;;;;;;5123983;27;19923;-49
2022/01/18 02:24:49;;;;;;;;;;;22.80;28.60;;;;;;5124393;27;20436;-49
2022/01/18 02:27:14;;;;;;;;;;;22.90;28.50;;;;;;5111364;27;19992;-49
2022/01/18 02:29:41;;;;;;;;;;;22.90;28.50;;;;;;5124299;27;19923;-51
2022/01/18 02:32:07;;;;;;;;;;;22.90;28.50;;;;;;5128064;27;20367;-56
2022/01/18 02:34:32;;;;;;;;;;;22.80;28.50;;;;;;5125538;27;19927;-52
2022/01/18 02:36:58;;;;;;;;;;;22.90;28.40;;;;;;5121826;27;19977;-51
2022/01/18 02:39:25;;;;;;;;;;;22.90;28.20;;;;;;5128872;27;20359;-52
2022/01/18 02:41:56;;;;;;;;;;;22.90;28.30;;;;;;5123872;27;20012;-51
2022/01/18 02:44:22;;;;;;;;;;;23.00;28.20;;;;;;5123998;27;19923;-51
2022/01/18 02:46:48;;;;;;;;;;;23.00;28.30;;;;;;5129554;27;20510;-48
2022/01/18 02:49:14;;;;;;;;;;;22.90;28.30;;;;;;5123327;27;19929;-52
2022/01/18 02:51:40;;;;;;;;;;;23.00;28.20;;;;;;5123469;27;19996;-50
2022/01/18 02:54:06;;;;;;;;;;;23.00;28.30;;;;;;5127208;27;20386;-49
2022/01/18 02:56:33;;;;;;;;;;;23.00;28.20;;;;;;5123111;27;20017;-50
2022/01/18 02:59:07;;;;;;;;;;;23.00;28.20;;;;;;5128602;27;19927;-49
2022/01/18 03:04:17;;;;;;;;;;;23.00;28.10;;;;;;5123538;27;19928;-49
2022/01/18 03:06:43;;;;;;;;;;;23.00;28.10;;;;;;5128790;27;19934;-47
2022/01/18 03:09:09;;;;;;;;;;;23.10;28.10;;;;;;5122716;27;19928;-46
2022/01/18 03:11:35;;;;;;;;;;;23.20;27.90;;;;;;5123194;27;19930;-47
2022/01/18 03:14:00;;;;;;;;;;;23.20;27.90;;;;;;5126989;27;19967;-46
2022/01/18 03:16:26;;;;;;;;;;;23.20;27.90;;;;;;5104390;27;19927;-47
2022/01/18 03:18:52;;;;;;;;;;;23.20;27.90;;;;;;5123222;27;20108;-55
2022/01/18 03:21:18;;;;;;;;;;;23.10;28.00;;;;;;5128913;27;19923;-53
2022/01/18 03:23:51;;;;;;;;;;;23.20;27.90;;;;;;5123231;27;20298;-53
2022/01/18 03:26:18;;;;;;;;;;;23.10;28.10;;;;;;5109242;27;19927;-54
2022/01/18 03:28:44;;;;;;;;;;;23.10;28.00;;;;;;5124272;27;19927;-51
2022/01/18 03:31:09;;;;;;;;;;;23.10;28.00;;;;;;5120975;27;19923;-48
2022/01/18 03:33:35;;;;;;;;;;;23.10;28.00;;;;;;5128084;27;20309;-48
2022/01/18 03:36:01;;;;;;;;;;;23.10;27.90;;;;;;5122435;27;19976;-49
2022/01/18 03:38:29;;;;;;;;;;;23.10;27.90;;;;;;5123010;27;19935;-47
2022/01/18 03:41:00;;;;;;;;;;;23.20;27.90;;;;;;5128328;27;19923;-49
2022/01/18 03:43:26;;;;;;;;;;;23.10;28.00;;;;;;5122523;27;19967;-50
2022/01/18 03:45:55;;;;;;;;;;;23.10;28.00;;;;;;5122333;27;20363;-50
2022/01/18 03:48:54;;;;;;;;;;;23.20;27.90;;;;;;5128401;27;19923;-48
2022/01/18 03:51:12;;;;;;;;;;;23.20;27.80;;;;;;5116235;27;19953;-54
2022/01/18 03:53:38;;;;;;;;;;;23.10;27.90;;;;;;5122372;27;19924;-54
2022/01/18 03:56:04;;;;;;;;;;;23.10;27.90;;;;;;5128134;27;20428;-48
2022/01/18 03:58:30;;;;;;;;;;;23.20;27.90;;;;;;5122915;27;20268;-52
2022/01/18 04:00:55;;;;;;;;;;;23.10;27.90;;;;;;5127949;27;20082;-48
2022/01/18 04:03:21;;;;;;;;;;;23.10;28.00;;;;;;5121607;27;20298;-52
2022/01/18 04:05:47;;;;;;;;;;;23.20;27.80;;;;;;5122577;27;19930;-54
2022/01/18 04:08:13;;;;;;;;;;;23.10;27.90;;;;;;5126119;27;19954;-52
2022/01/18 04:10:39;;;;;;;;;;;22.90;28.10;;;;;;5121970;27;19973;-55
2022/01/18 04:13:04;;;;;;;;;;;23.00;28.00;;;;;;5121876;27;20329;-51
2022/01/18 04:15:31;;;;;;;;;;;23.00;28.00;;;;;;5127237;27;20324;-54
2022/01/18 04:28:54;;;;;;;;;;;22.80;28.30;;;;;;5038024;28;20053;-53
2022/01/18 04:31:19;;;;;;;;;;;22.70;28.40;;;;;;5109804;27;19923;-55
2022/01/18 04:33:45;;;;;;;;;;;22.70;28.40;;;;;;5121756;27;20378;-51
2022/01/18 04:36:11;;;;;;;;;;;22.70;28.40;;;;;;5121991;27;19924;-53
2022/01/18 04:38:37;;;;;;;;;;;22.60;28.50;;;;;;5127168;27;20034;-52
2022/01/18 04:41:13;;;;;;;;;;;22.60;28.50;;;;;;5120833;27;20022;-51
2022/01/18 04:49:08;;;;;;;;;;;22.70;28.50;;;;;;5121400;27;20359;-50
2022/01/18 04:51:34;;;;;;;;;;;22.80;28.30;;;;;;5123175;27;19994;-58
2022/01/18 04:54:01;;;;;;;;;;;22.80;28.20;;;;;;5125782;27;19931;-51
2022/01/18 04:59:15;;;;;;;;;;;22.80;28.30;;;;;;5081994;27;19927;-56
2022/01/18 05:01:41;;;;;;;;;;;22.80;28.30;;;;;;5123875;27;19967;-53
2022/01/18 05:04:07;;;;;;;;;;;22.80;28.30;;;;;;5119342;27;20449;-55
2022/01/18 05:06:33;;;;;;;;;;;22.80;28.30;;;;;;5126498;27;19923;-53
2022/01/18 05:09:05;;;;;;;;;;;22.90;28.20;;;;;;5120850;27;19977;-50
2022/01/18 05:11:36;;;;;;;;;;;22.80;28.30;;;;;;5121352;27;20434;-51
2022/01/18 05:14:16;;;;;;;;;;;22.80;28.30;;;;;;5126705;27;19971;-51
2022/01/18 05:16:56;;;;;;;;;;;22.80;28.30;;;;;;5120882;28;20391;-53
2022/01/18 05:19:37;;;;;;;;;;;22.80;28.20;;;;;;5120952;28;20359;-50
2022/01/18 05:24:31;;;;;;;;;;;22.90;28.20;;;;;;5120783;28;19923;-51
2022/01/18 05:26:57;;;;;;;;;;;22.80;28.30;;;;;;5121033;27;19928;-46
2022/01/18 05:29:23;;;;;;;;;;;22.90;28.20;;;;;;5129961;27;19941;-51
2022/01/18 05:31:49;;;;;;;;;;;23.00;28.10;;;;;;5125360;27;19924;-48
2022/01/18 05:34:15;;;;;;;;;;;23.00;28.10;;;;;;5125383;27;19927;-48
2022/01/18 05:36:40;;;;;;;;;;;23.10;27.90;;;;;;5129619;27;19927;-51
2022/01/18 05:39:09;;;;;;;;;;;23.00;28.00;;;;;;5125186;27;19940;-55
2022/01/18 05:41:35;;;;;;;;;;;22.90;28.20;;;;;;5128318;27;20363;-51
2022/01/18 05:44:01;;;;;;;;;;;22.70;28.40;;;;;;5124901;27;19923;-57
2022/01/18 05:46:27;;;;;;;;;;;22.70;28.40;;;;;;5106446;27;19945;-55
2022/01/18 05:48:52;;;;;;;;;;;22.70;28.50;;;;;;5130655;27;19972;-55
2022/01/18 05:51:18;;;;;;;;;;;22.60;28.60;;;;;;5125147;27;19927;-53
2022/01/18 05:53:44;;;;;;;;;;;22.60;28.50;;;;;;5124709;27;19935;-54
2022/01/18 05:56:11;;;;;;;;;;;22.60;28.50;;;;;;5130034;27;19927;-52
2022/01/18 05:58:44;;;;;;;;;;;22.70;28.40;;;;;;5123341;27;19975;-53
2022/01/18 06:01:10;;;;;;;;;;;22.70;28.30;;;;;;5128147;27;20302;-56
2022/01/18 06:03:51;;;;;;;;;;;22.80;28.20;;;;;;5126460;27;20021;-53
2022/01/18 06:09:01;;;;;;;;;;;22.70;28.30;;;;;;5125725;27;19924;-56
2022/01/18 06:11:26;;;;;;;;;;;22.70;28.20;;;;;;5129198;27;20292;-52
2022/01/18 06:13:52;;;;;;;;;;;22.80;28.20;;;;;;5123672;27;19923;-51
2022/01/18 06:16:18;;;;;;;;;;;22.70;28.20;;;;;;5129909;27;19934;-52
2022/01/18 06:18:44;;;;;;;;;;;22.80;28.10;;;;;;5122110;27;19949;-51
2022/01/18 06:21:10;;;;;;;;;;;22.80;28.10;;;;;;5123946;27;20386;-50
2022/01/18 06:23:35;;;;;;;;;;;22.80;28.10;;;;;;5129557;27;19924;-52
2022/01/18 06:26:03;;;;;;;;;;;22.70;28.20;;;;;;5124437;27;19923;-50
2022/01/18 06:28:29;;;;;;;;;;;22.80;28.20;;;;;;5124289;27;20318;-51
2022/01/18 06:30:55;;;;;;;;;;;22.70;28.20;;;;;;5129079;27;19923;-50
2022/01/18 06:33:21;;;;;;;;;;;22.70;28.20;;;;;;5123604;27;20375;-52
2022/01/18 06:35:46;;;;;;;;;;;22.80;28.10;;;;;;5127943;27;19931;-54
2022/01/18 06:38:13;;;;;;;;;;;22.80;28.10;;;;;;5123924;27;21886;-50
2022/01/18 06:40:39;;;;;;;;;;;22.80;28.10;;;;;;5123069;27;19927;-50
2022/01/18 06:43:05;;;;;;;;;;;22.80;28.20;;;;;;5129489;27;20064;-52
2022/01/18 06:45:30;;;;;;;;;;;22.80;28.10;;;;;;5124157;27;19927;-51
2022/01/18 06:47:56;;;;;;;;;;;22.80;28.20;;;;;;5124207;27;19966;-52
2022/01/18 06:50:22;;;;;;;;;;;22.80;28.10;;;;;;5128720;27;19923;-53
2022/01/18 06:52:48;;;;;;;;;;;22.80;28.10;;;;;;5123879;27;20173;-51
2022/01/18 06:55:14;;;;;;;;;;;22.80;28.00;;;;;;5127139;27;19923;-53
2022/01/18 06:57:39;;;;;;;;;;;22.80;28.20;;;;;;5123540;27;20310;-51
2022/01/18 07:00:05;;;;;;;;;;;22.80;28.10;;;;;;5123226;27;20021;-52
2022/01/18 07:02:31;;;;;;;;;;;22.90;28.00;;;;;;5129146;27;19923;-51
2022/01/18 07:04:57;;;;;;;;;;;22.80;28.00;;;;;;5123445;27;19934;-52
2022/01/18 07:07:23;;;;;;;;;;;22.80;28.00;;;;;;5123290;27;20414;-51
2022/01/18 07:09:49;;;;;;;;;;;22.90;27.90;;;;;;5128147;27;19927;-51
2022/01/18 07:12:16;;;;;;;;;;;22.90;27.90;;;;;;5123181;27;19930;-54
2022/01/18 07:14:41;;;;;;;;;;;22.90;27.90;;;;;;5125460;27;20428;-56
2022/01/18 07:17:07;;;;;;;;;;;22.80;28.10;;;;;;5124819;27;20002;-49
2022/01/18 07:19:33;;;;;;;;;;;22.80;28.00;;;;;;5123297;27;19934;-50
2022/01/18 07:21:59;;;;;;;;;;;22.90;28.00;;;;;;5128776;27;19935;-50
2022/01/18 07:24:36;;;;;;;;;;;22.80;28.00;;;;;;5123030;27;19923;-50
2022/01/18 07:27:02;;;;;;;;;;;22.80;28.00;;;;;;5122275;27;20297;-49
2022/01/18 07:29:28;;;;;;;;;;;22.80;28.00;;;;;;5128299;27;19923;-50
2022/01/18 07:31:54;;;;;;;;;;;22.80;28.10;;;;;;5121120;27;19923;-53
2022/01/18 07:34:19;;;;;;;;;;;22.80;28.10;;;;;;5122556;27;19962;-50
2022/01/18 07:36:45;;;;;;;;;;;22.80;28.10;;;;;;5127843;27;19923;-50
2022/01/18 07:39:11;;;;;;;;;;;22.80;28.00;;;;;;5123045;27;19923;-51
2022/01/18 07:41:37;;;;;;;;;;;22.80;27.90;;;;;;5128612;27;20263;-50
2022/01/18 07:44:02;;;;;;;;;;;22.80;27.90;;;;;;5122719;27;19936;-50
2022/01/18 07:46:28;;;;;;;;;;;22.80;28.00;;;;;;5121974;27;19931;-50
2022/01/18 07:48:54;;;;;;;;;;;22.80;28.00;;;;;;5128046;27;19935;-50
2022/01/18 07:51:20;;;;;;;;;;;22.80;28.10;;;;;;5119290;27;19935;-48
2022/01/18 07:53:45;;;;;;;;;;;22.80;28.00;;;;;;5122259;27;19935;-51
2022/01/18 07:56:11;;;;;;;;;;;22.80;28.10;;;;;;5127804;27;20402;-51
2022/01/18 07:58:37;;;;;;;;;;;22.80;28.00;;;;;;5122739;27;19929;-49
2022/01/18 08:01:03;;;;;;;;;;;23.00;27.90;;;;;;5109756;27;19930;-50
2022/01/18 08:03:29;;;;;;;;;;;22.90;27.90;;;;;;5121944;27;19946;-50
2022/01/18 08:05:55;;;;;;;;;;;22.90;27.90;;;;;;5121998;27;19924;-50
2022/01/18 08:08:22;;;;;;;;;;;22.80;28.00;;;;;;5126142;27;19932;-49
2022/01/18 08:10:47;;;;;;;;;;;23.00;27.80;;;;;;5121597;27;19934;-49
2022/01/18 08:13:13;;;;;;;;;;;22.90;27.90;;;;;;5121698;27;20164;-52
2022/01/18 08:15:40;;;;;;;;;;;23.00;27.80;;;;;;5127449;27;19923;-47
2022/01/18 08:18:07;;;;;;;;;;;23.00;27.90;;;;;;5122359;27;19976;-49
2022/01/18 08:20:32;;;;;;;;;;;23.00;27.90;;;;;;5125007;27;19924;-55
2022/01/18 08:22:58;;;;;;;;;;;23.00;27.80;;;;;;5123967;27;19949;-50
2022/01/18 08:25:24;;;;;;;;;;;23.00;27.80;;;;;;5121919;27;19931;-50
2022/01/18 08:27:50;;;;;;;;;;;23.00;27.80;;;;;;5125340;27;19924;-51
2022/01/18 08:30:19;;;;;;;;;;;23.10;27.70;;;;;;5121748;27;20263;-51
2022/01/18 08:32:45;;;;;;;;;;;23.10;27.80;;;;;;5121590;27;19948;-49
2022/01/18 08:35:11;;;;;;;;;;;23.00;27.70;;;;;;5109375;27;19934;-48
2022/01/18 08:37:37;;;;;;;;;;;23.00;27.70;;;;;;5122083;27;20401;-47
2022/01/18 08:40:03;;;;;;;;;;;23.00;27.80;;;;;;5103298;27;19923;-49
2022/01/18 08:42:29;;;;;;;;;;;23.00;27.80;;;;;;5126654;27;19923;-45
2022/01/18 08:44:55;;;;;;;;;;;23.20;27.50;;;;;;5121205;27;19931;-55
2022/01/18 08:47:21;;;;;;;;;;;23.20;27.50;;;;;;5125276;27;20028;-53
2022/01/18 08:49:47;;;;;;;;;;;23.00;27.70;;;;;;5121203;27;20363;-50
2022/01/18 08:52:12;;;;;;;;;;;22.80;27.80;;;;;;5121600;27;19927;-52
2022/01/18 08:54:39;;;;;;;;;;;22.90;27.80;;;;;;5127184;27;19973;-52
2022/01/18 08:57:04;;;;;;;;;;;22.80;27.80;;;;;;5121567;27;19972;-48
2022/01/18 08:59:35;;;;;;;;;;;23.00;27.60;;;;;;5120272;27;20204;-50
2022/01/18 09:02:02;;;;;;;;;;;22.90;27.70;;;;;;5108183;27;20357;-50
2022/01/18 09:04:27;;;;;;;;;;;23.00;27.60;;;;;;5119253;27;19978;-52
2022/01/18 09:06:54;;;;;;;;;;;23.00;27.70;;;;;;5126251;27;19936;-51
2022/01/18 09:09:20;;;;;;;;;;;23.00;27.60;;;;;;5121362;27;19976;-50
2022/01/18 09:11:46;;;;;;;;;;;23.10;27.40;;;;;;5121414;27;19923;-48
2022/01/18 09:14:15;;;;;;;;;;;23.10;27.50;;;;;;5126953;27;19923;-47
2022/01/18 09:16:41;;;;;;;;;;;23.10;27.40;;;;;;5101739;28;20453;-49
2022/01/18 09:19:07;;;;;;;;;;;23.20;27.40;;;;;;5120476;27;19926;-48
2022/01/18 09:21:33;;;;;;;;;;;23.20;27.30;;;;;;5106329;28;20456;-51
2022/01/18 09:23:59;;;;;;;;;;;23.10;27.40;;;;;;5119008;28;20298;-57
2022/01/18 09:26:25;;;;;;;;;;;22.90;27.60;;;;;;5121812;28;19931;-59
2022/01/18 09:28:51;;;;;;;;;;;22.80;27.70;;;;;;5125849;28;20026;-52
2022/01/18 09:31:17;;;;;;;;;;;22.70;27.90;;;;;;5102728;28;20370;-53
2022/01/18 09:33:43;;;;;;;;;;;22.70;28.00;;;;;;5126597;28;19930;-53
2022/01/18 09:36:09;;;;;;;;;;;22.70;28.00;;;;;;5120488;28;19927;-52
2022/01/18 09:38:34;;;;;;;;;;;22.70;28.10;;;;;;5120915;28;19932;-52
2022/01/18 09:41:08;;;;;;;;;;;22.70;28.10;;;;;;5124477;27;19931;-51
2022/01/18 09:43:34;;;;;;;;;;;22.70;28.00;;;;;;5102236;28;19927;-53
2022/01/18 09:46:00;;;;;;;;;;;22.70;28.20;;;;;;5120331;27;19986;-52
2022/01/18 09:48:26;;;;;;;;;;;22.70;28.20;;;;;;5126163;28;19945;-54
2022/01/18 09:50:51;;;;;;;;;;;22.70;28.10;;;;;;5121048;28;19924;-52
2022/01/18 09:53:17;;;;;;;;;;;22.80;28.10;;;;;;5126344;28;19973;-50
2022/01/18 09:55:43;;;;;;;;;;;22.80;28.10;;;;;;5119721;28;19924;-52
2022/01/18 09:58:09;;;;;;;;;;;22.80;28.00;;;;;;5120633;27;20449;-51
2022/01/18 10:00:36;;;;;;;;;;;22.80;28.10;;;;;;5123665;28;19927;-54
2022/01/18 10:03:02;;;;;;;;;;;22.80;28.20;;;;;;5120622;27;20518;-50
2022/01/18 10:05:29;;;;;;;;;;;22.80;28.10;;;;;;5120662;28;19966;-52
2022/01/18 10:07:59;;;;;;;;;;;22.80;28.00;;;;;;5126445;28;20313;-50
2022/01/18 10:10:34;;;;;;;;;;;22.80;27.90;;;;;;5120869;28;19930;-50
2022/01/18 10:13:00;;;;;;;;;;;22.90;27.90;;;;;;5119786;27;19972;-53
2022/01/18 10:15:26;;;;;;;;;;;22.90;27.80;;;;;;5128888;27;20201;-50
2022/01/18 10:17:51;;;;;;;;;;;23.00;27.70;;;;;;5122447;27;19930;-49
2022/01/18 10:20:20;;;;;;;;;;;22.90;27.80;;;;;;5110953;27;19928;-50
2022/01/18 10:22:48;;;;;;;;;;;22.90;27.80;;;;;;5123946;27;19923;-51
2022/01/18 10:25:20;;;;;;;;;;;22.90;27.70;;;;;;5124510;27;19923;-50
2022/01/18 10:27:47;;;;;;;;;;;22.90;27.60;;;;;;5130006;27;20018;-51
2022/01/18 10:30:20;;;;;;;;;;;23.00;27.40;;;;;;5124357;27;19924;-50
2022/01/18 10:33:00;;;;;;;;;;;22.90;27.40;;;;;;5123227;27;20170;-50
2022/01/18 10:35:26;;;;;;;;;;;23.00;27.30;;;;;;5129505;27;19927;-47
2022/01/18 10:37:52;;;;;;;;;;;23.10;27.20;;;;;;5121703;27;19930;-47
2022/01/18 10:40:18;;;;;;;;;;;23.20;27.00;;;;;;5123761;27;20184;-48
2022/01/18 10:42:46;;;;;;;;;;;23.10;27.10;;;;;;5129310;27;19924;-51
2022/01/18 10:45:30;;;;;;;;;;;23.20;26.90;;;;;;5124088;27;19924;-47
2022/01/18 10:47:57;;;;;;;;;;;23.10;26.90;;;;;;5124104;27;19923;-54
2022/01/18 10:50:23;;;;;;;;;;;23.20;26.80;;;;;;5128482;27;20379;-54
2022/01/18 10:52:52;;;;;;;;;;;23.20;26.80;;;;;;5105419;27;20018;-51
2022/01/18 10:55:19;;;;;;;;;;;23.10;26.90;;;;;;5126408;27;20018;-55
2022/01/18 10:57:45;;;;;;;;;;;23.10;26.90;;;;;;5124765;27;19938;-50
2022/01/18 11:00:11;;;;;;;;;;;23.10;26.90;;;;;;5123301;27;21274;-52
2022/01/18 11:02:37;;;;;;;;;;;23.00;26.90;;;;;;5129298;27;19976;-49
2022/01/18 11:05:22;;;;;;;;;;;23.10;26.80;;;;;;5123325;27;19930;-52
2022/01/18 11:07:49;;;;;;;;;;;23.00;26.90;;;;;;5123434;27;19928;-51
2022/01/18 11:10:16;;;;;;;;;;;23.10;26.80;;;;;;5128293;27;20401;-49
2022/01/18 11:12:42;;;;;;;;;;;23.20;26.80;;;;;;5122911;27;20317;-57
2022/01/18 11:15:15;;;;;;;;;;;23.10;26.80;;;;;;5121727;27;20134;-52
2022/01/18 11:17:43;;;;;;;;;;;23.00;26.90;;;;;;5128396;27;19936;-54
2022/01/18 11:20:09;;;;;;;;;;;23.00;26.90;;;;;;5123179;27;19934;-52
2022/01/18 11:22:35;;;;;;;;;;;22.90;26.80;;;;;;5123355;27;20514;-55
2022/01/18 11:25:01;;;;;;;;;;;22.90;26.80;;;;;;5128590;27;19923;-52
2022/01/18 11:27:29;;;;;;;;;;;23.00;26.70;;;;;;5122258;27;20022;-50
2022/01/18 11:29:55;;;;;;;;;;;23.00;26.60;;;;;;5128561;27;19923;-51
2022/01/18 11:32:21;;;;;;;;;;;23.00;26.60;;;;;;5120547;27;19970;-51
2022/01/18 11:34:55;;;;;;;;;;;23.00;26.50;;;;;;5104437;27;19934;-52
2022/01/18 11:37:33;;;;;;;;;;;23.00;26.50;;;;;;5110168;27;20278;-50
2022/01/18 11:39:59;;;;;;;;;;;23.20;26.30;;;;;;5104744;27;20010;-50
2022/01/18 11:42:36;;;;;;;;;;;23.20;26.20;;;;;;5122928;27;19923;-51
2022/01/18 11:45:20;;;;;;;;;;;23.20;26.20;;;;;;5127751;27;20119;-49
2022/01/18 11:47:57;;;;;;;;;;;23.10;26.40;;;;;;5104160;27;19933;-52
2022/01/18 11:50:26;;;;;;;;;;;23.10;26.30;;;;;;5118250;27;19930;-53
2022/01/18 11:53:15;;;;;;;;;;;23.00;26.40;;;;;;5127671;27;20353;-53
2022/01/18 11:55:40;;;;;;;;;;;23.00;26.40;;;;;;5102844;27;19923;-51
2022/01/18 11:58:10;;;;;;;;;;;23.10;26.20;;;;;;5104269;27;19927;-52
2022/01/18 12:00:36;;;;;;;;;;;23.00;26.30;;;;;;5128183;27;19934;-51
2022/01/18 12:03:14;;;;;;;;;;;23.00;26.20;;;;;;5103763;27;19923;-51
2022/01/18 12:05:43;;;;;;;;;;;23.20;26.20;;;;;;5121554;27;20038;-53
2022/01/18 12:08:09;;;;;;;;;;;23.10;26.40;;;;;;5126710;27;19930;-57
2022/01/18 12:10:38;;;;;;;;;;;23.00;26.60;;;;;;5102698;27;20362;-51
2022/01/18 12:13:27;;;;;;;;;;;23.00;26.80;;;;;;5121786;27;20248;-52
2022/01/18 12:15:55;;;;;;;;;;;23.00;26.80;;;;;;5114005;27;20006;-52
2022/01/18 12:18:22;;;;;;;;;;;23.10;26.80;;;;;;5122421;27;19930;-54
2022/01/18 12:20:48;;;;;;;;;;;23.00;26.90;;;;;;5121932;27;19933;-52
2022/01/18 12:23:26;;;;;;;;;;;23.00;27.00;;;;;;5126614;27;19923;-54
2022/01/18 12:25:58;;;;;;;;;;;23.00;26.90;;;;;;5122039;27;19931;-51
2022/01/18 12:28:32;;;;;;;;;;;23.10;26.90;;;;;;5119434;27;20052;-55
2022/01/18 12:31:07;;;;;;;;;;;23.10;26.90;;;;;;5127125;27;20301;-50
2022/01/18 12:33:44;;;;;;;;;;;23.20;26.80;;;;;;5121733;27;19927;-50
2022/01/18 12:36:28;;;;;;;;;;;23.10;26.70;;;;;;5122040;27;19924;-49
2022/01/18 12:38:58;;;;;;;;;;;23.20;26.70;;;;;;5127360;27;20348;-51
2022/01/18 12:41:45;;;;;;;;;;;23.10;26.80;;;;;;5102662;27;19927;-54
2022/01/18 12:44:22;;;;;;;;;;;23.10;26.80;;;;;;5121944;27;20160;-55
2022/01/18 12:46:51;;;;;;;;;;;23.10;26.80;;;;;;5124661;27;19931;-56
2022/01/18 12:49:17;;;;;;;;;;;23.00;26.80;;;;;;5121264;27;19930;-54
2022/01/18 12:51:43;;;;;;;;;;;23.20;26.70;;;;;;5102867;27;20411;-49
2022/01/18 12:54:09;;;;;;;;;;;23.10;26.60;;;;;;5107128;27;19924;-54
2022/01/18 12:56:34;;;;;;;;;;;23.10;26.70;;;;;;5121491;27;19923;-52
2022/01/18 12:59:01;;;;;;;;;;;23.20;26.60;;;;;;5126520;27;19964;-54
2022/01/18 13:01:28;;;;;;;;;;;23.10;26.70;;;;;;5121415;27;19999;-51
2022/01/18 13:03:56;;;;;;;;;;;23.00;26.70;;;;;;5119352;27;20123;-53
2022/01/18 13:06:30;;;;;;;;;;;22.90;26.80;;;;;;5126273;27;19934;-58
2022/01/18 13:08:59;;;;;;;;;;;22.90;26.70;;;;;;5121013;27;19930;-54
2022/01/18 13:11:29;;;;;;;;;;;22.80;26.70;;;;;;5121649;27;19929;-53
2022/01/18 13:13:59;;;;;;;;;;;22.80;26.60;;;;;;5127017;27;19980;-55
2022/01/18 13:27:37;;;;;;;;;;;22.80;26.40;;;;;;5120714;28;20351;-49
2022/01/18 13:30:09;;;;;;;;;;;22.90;26.30;;;;;;5108366;28;19928;-53
2022/01/18 13:32:36;;;;;;;;;;;23.00;26.20;;;;;;5122730;28;19927;-54
2022/01/18 13:35:03;;;;;;;;;;;22.90;26.20;;;;;;5121043;27;20298;-50
2022/01/18 13:37:31;;;;;;;;;;;22.90;26.10;;;;;;5125463;27;19929;-50
2022/01/18 13:39:57;;;;;;;;;;;23.10;26.10;;;;;;5120908;27;19959;-50
2022/01/18 13:42:28;;;;;;;;;;;23.00;26.20;;;;;;5118715;27;19931;-50
2022/01/18 13:45:12;;;;;;;;;;;23.10;26.10;;;;;;5125829;28;20419;-51
2022/01/18 13:47:39;;;;;;;;;;;23.10;26.10;;;;;;5120994;27;20053;-51
2022/01/18 13:50:05;;;;;;;;;;;23.20;25.90;;;;;;5123470;27;19924;-49
2022/01/18 13:52:31;;;;;;;;;;;23.20;26.00;;;;;;5130550;27;20382;-50
2022/01/18 13:54:57;;;;;;;;;;;23.10;26.00;;;;;;5123952;27;19925;-52
2022/01/18 13:57:23;;;;;;;;;;;23.10;26.10;;;;;;5125855;27;19933;-59
2022/01/18 13:59:49;;;;;;;;;;;23.00;26.10;;;;;;5127685;27;20299;-51
2022/01/18 14:02:19;;;;;;;;;;;23.00;26.00;;;;;;5124370;27;20077;-61
2022/01/18 14:04:45;;;;;;;;;;;23.00;25.90;;;;;;5129552;27;19923;-57
2022/01/18 14:07:11;;;;;;;;;;;22.80;26.20;;;;;;5106557;27;19938;-51
2022/01/18 14:09:37;;;;;;;;;;;22.80;26.30;;;;;;5124931;27;19930;-57
2022/01/18 14:12:03;;;;;;;;;;;22.80;26.30;;;;;;5130040;27;20478;-55
2022/01/18 14:14:31;;;;;;;;;;;22.80;26.20;;;;;;5124025;27;19924;-55
2022/01/18 14:16:58;;;;;;;;;;;22.80;26.20;;;;;;5105822;27;19935;-53
2022/01/18 14:19:24;;;;;;;;;;;22.80;26.20;;;;;;5127870;27;19923;-53
2022/01/18 14:21:50;;;;;;;;;;;22.80;26.10;;;;;;5123963;27;19924;-55
2022/01/18 14:24:16;;;;;;;;;;;22.80;26.10;;;;;;5129591;27;19976;-54
2022/01/18 14:26:48;;;;;;;;;;;22.80;26.00;;;;;;5124133;27;19938;-52
2022/01/18 14:29:14;;;;;;;;;;;22.80;25.90;;;;;;5124271;27;19923;-52
2022/01/18 14:31:40;;;;;;;;;;;22.80;25.70;;;;;;5128669;27;20029;-54
2022/01/18 14:34:05;;;;;;;;;;;22.90;25.40;;;;;;5124190;27;19928;-51
2022/01/18 14:36:31;;;;;;;;;;;22.70;25.60;;;;;;5121877;27;19923;-53
2022/01/18 14:39:10;;;;;;;;;;;22.80;25.40;;;;;;5110630;27;19930;-54
2022/01/18 14:41:35;;;;;;;;;;;22.90;25.40;;;;;;5123730;27;19928;-51
2022/01/18 14:44:10;;;;;;;;;;;22.80;25.30;;;;;;5123956;27;20053;-51
2022/01/18 14:46:58;;;;;;;;;;;22.90;25.30;;;;;;5129727;27;20010;-52
2022/01/18 14:49:23;;;;;;;;;;;23.00;25.30;;;;;;5123632;27;20001;-53
2022/01/18 14:51:49;;;;;;;;;;;22.90;25.40;;;;;;5123267;27;20763;-51
2022/01/18 14:54:15;;;;;;;;;;;23.00;25.30;;;;;;5127574;27;19931;-52
2022/01/18 14:56:41;;;;;;;;;;;22.90;25.30;;;;;;5123170;27;19977;-52
2022/01/18 14:59:07;;;;;;;;;;;23.00;25.20;;;;;;5128877;27;19930;-53
2022/01/18 15:01:36;;;;;;;;;;;23.00;25.20;;;;;;5123299;27;19976;-53
2022/01/18 15:04:02;;;;;;;;;;;23.00;25.20;;;;;;5123551;27;19931;-53
2022/01/18 15:06:27;;;;;;;;;;;23.00;25.20;;;;;;5128956;27;20041;-54
2022/01/18 15:08:53;;;;;;;;;;;23.00;25.10;;;;;;5122494;27;19923;-51
2022/01/18 15:11:19;;;;;;;;;;;23.00;25.10;;;;;;5123304;27;19924;-49
2022/01/18 15:13:45;;;;;;;;;;;23.00;25.10;;;;;;5126369;27;20018;-53
2022/01/18 15:16:10;;;;;;;;;;;23.10;24.90;;;;;;5123082;27;20228;-52
2022/01/18 15:18:36;;;;;;;;;;;23.00;24.90;;;;;;5125343;27;19927;-55
2022/01/18 15:21:02;;;;;;;;;;;23.10;24.70;;;;;;5126782;27;19938;-52
2022/01/18 15:23:28;;;;;;;;;;;23.00;24.80;;;;;;5123412;27;19976;-51
2022/01/18 15:25:54;;;;;;;;;;;23.10;24.90;;;;;;5128643;27;20394;-51
2022/01/18 15:28:20;;;;;;;;;;;23.10;25.00;;;;;;5122434;27;19929;-49
2022/01/18 15:30:46;;;;;;;;;;;23.10;25.20;;;;;;5122954;27;19924;-49